Time;durP1;ratioP1;P1;durP2;ratioP2;P2;SDS_P1;SDS_P2;PMS_P1;PMS_P2;Temp;Humidity;BMP_temperature;BMP_pressure;BME280_temperature;BME280_humidity;BME280_pressure;Samples;Min_cycle;Max_cycle;Signal;HPM_P1;HPM_P2
2023/08/23 00:00:47;;;;;;;4.03;3.05;;;18.20;99.90;;;;;;2496038;23;20007;-73
2023/08/23 00:01:47;;;;;;;5.20;2.95;;;18.20;99.90;;;;;;2496190;23;20014;-73
2023/08/23 00:02:48;;;;;;;3.42;3.13;;;18.20;99.90;;;;;;2494150;23;20439;-73
2023/08/23 00:03:48;;;;;;;7.07;3.45;;;18.20;99.90;;;;;;2495397;23;20027;-73
2023/08/23 00:04:50;;;;;;;4.57;3.55;;;18.20;99.90;;;;;;2495943;23;20056;-73
2023/08/23 00:05:50;;;;;;;6.40;3.42;;;18.20;99.90;;;;;;2495774;23;20011;-73
2023/08/23 00:06:51;;;;;;;6.88;3.45;;;18.20;99.90;;;;;;2496242;23;20008;-73
2023/08/23 00:07:51;;;;;;;5.82;3.80;;;18.20;99.90;;;;;;2494636;23;20031;-73
2023/08/23 00:08:52;;;;;;;10.43;3.95;;;18.10;99.90;;;;;;2496133;23;20424;-73
2023/08/23 00:09:53;;;;;;;3.67;3.22;;;18.10;99.90;;;;;;2495446;23;20011;-73
2023/08/23 00:10:54;;;;;;;5.15;3.28;;;18.20;99.90;;;;;;2495871;23;20337;-73
2023/08/23 00:11:55;;;;;;;6.10;3.60;;;18.20;99.90;;;;;;2495786;23;20131;-73
2023/08/23 00:12:56;;;;;;;5.53;3.42;;;18.10;99.90;;;;;;2495246;23;20570;-73
2023/08/23 00:13:56;;;;;;;5.43;3.67;;;18.10;99.90;;;;;;2496218;23;20007;-73
2023/08/23 00:14:57;;;;;;;6.78;3.58;;;18.10;99.90;;;;;;2497220;23;20050;-74
2023/08/23 00:15:58;;;;;;;7.85;3.53;;;18.10;99.90;;;;;;2495999;23;20003;-73
2023/08/23 00:16:58;;;;;;;6.15;3.80;;;18.10;99.90;;;;;;2496917;23;20027;-73
2023/08/23 00:17:59;;;;;;;4.63;3.15;;;18.10;99.90;;;;;;2496593;23;19999;-73
2023/08/23 00:18:59;;;;;;;5.28;3.85;;;18.10;99.90;;;;;;2482505;23;20091;-73
2023/08/23 00:20:00;;;;;;;3.80;3.42;;;18.10;99.90;;;;;;2483860;23;20003;-73
2023/08/23 00:21:00;;;;;;;6.00;3.28;;;18.10;99.90;;;;;;2496476;23;20064;-73
2023/08/23 00:22:02;;;;;;;4.03;3.17;;;18.10;99.90;;;;;;2496056;23;20091;-73
2023/08/23 00:23:03;;;;;;;5.22;3.33;;;18.10;99.90;;;;;;2495855;23;19999;-73
2023/08/23 00:24:04;;;;;;;4.63;3.47;;;18.10;99.90;;;;;;2496892;23;20018;-73
2023/08/23 00:25:04;;;;;;;5.78;3.42;;;18.10;99.90;;;;;;2496392;23;19999;-73
2023/08/23 00:26:05;;;;;;;7.22;3.70;;;18.10;99.90;;;;;;2496543;23;20033;-73
2023/08/23 00:27:06;;;;;;;6.45;3.75;;;18.10;99.90;;;;;;2496395;23;20023;-73
2023/08/23 00:28:06;;;;;;;10.35;3.10;;;18.10;99.90;;;;;;2495024;23;20010;-73
2023/08/23 00:29:07;;;;;;;7.93;4.10;;;18.10;99.90;;;;;;2496331;23;20062;-73
2023/08/23 00:30:08;;;;;;;3.83;3.42;;;18.10;99.90;;;;;;2496519;23;20026;-73
2023/08/23 00:31:08;;;;;;;3.88;3.45;;;18.10;99.90;;;;;;2496935;23;20051;-73
2023/08/23 00:32:09;;;;;;;7.30;3.45;;;18.00;99.90;;;;;;2495801;23;20002;-73
2023/08/23 00:33:09;;;;;;;5.00;3.08;;;18.00;99.90;;;;;;2496862;23;19999;-73
2023/08/23 00:34:10;;;;;;;4.10;2.88;;;18.00;99.90;;;;;;2496999;23;20396;-73
2023/08/23 00:35:10;;;;;;;5.15;3.08;;;18.00;99.90;;;;;;2494879;23;20003;-73
2023/08/23 00:36:11;;;;;;;5.30;3.30;;;18.00;99.90;;;;;;2496074;23;20027;-73
2023/08/23 00:37:11;;;;;;;4.10;3.03;;;18.00;99.90;;;;;;2496858;23;20435;-73
2023/08/23 00:38:12;;;;;;;5.07;3.28;;;18.00;99.90;;;;;;2495874;23;20008;-73
2023/08/23 00:39:13;;;;;;;5.63;3.45;;;18.00;99.90;;;;;;2497052;23;19999;-73
2023/08/23 00:40:13;;;;;;;7.55;3.28;;;18.00;99.90;;;;;;2494875;23;20006;-73
2023/08/23 00:41:14;;;;;;;3.90;3.50;;;18.00;99.90;;;;;;2496520;23;20007;-73
2023/08/23 00:42:14;;;;;;;5.72;3.63;;;18.00;99.90;;;;;;2495214;23;20430;-73
2023/08/23 00:43:15;;;;;;;8.88;3.63;;;18.00;99.90;;;;;;2495204;23;20007;-73
2023/08/23 00:44:15;;;;;;;4.82;3.28;;;18.00;99.90;;;;;;2496254;23;20009;-73
2023/08/23 00:45:16;;;;;;;4.60;2.70;;;18.00;99.90;;;;;;2483564;23;20012;-73
2023/08/23 00:46:18;;;;;;;4.20;3.17;;;17.90;99.90;;;;;;2483929;23;20004;-73
2023/08/23 00:47:19;;;;;;;9.13;3.65;;;17.90;99.90;;;;;;2496588;23;20332;-73
2023/08/23 00:48:21;;;;;;;5.95;4.15;;;17.90;99.90;;;;;;2496289;23;20014;-73
2023/08/23 00:49:22;;;;;;;5.07;3.45;;;17.90;99.90;;;;;;2496302;23;20011;-73
2023/08/23 00:50:22;;;;;;;8.90;3.85;;;17.90;99.90;;;;;;2483624;23;20008;-73
2023/08/23 00:51:23;;;;;;;6.13;4.07;;;17.90;99.90;;;;;;2483536;23;20113;-73
2023/08/23 00:52:24;;;;;;;4.53;3.28;;;17.90;99.90;;;;;;2495354;23;20012;-73
2023/08/23 00:53:24;;;;;;;4.13;3.28;;;17.90;99.90;;;;;;2495631;23;20003;-73
2023/08/23 00:54:25;;;;;;;5.22;3.38;;;17.90;99.90;;;;;;2483548;23;20111;-73
2023/08/23 00:55:26;;;;;;;5.85;3.58;;;17.80;99.90;;;;;;2472785;23;20007;-73
2023/08/23 00:56:27;;;;;;;5.35;4.03;;;17.90;99.90;;;;;;2483146;23;20035;-73
2023/08/23 00:57:28;;;;;;;5.03;3.20;;;17.90;99.90;;;;;;2496340;23;20034;-73
2023/08/23 00:58:29;;;;;;;4.65;2.88;;;17.90;99.90;;;;;;2495692;23;20034;-73
2023/08/23 00:59:31;;;;;;;5.10;3.28;;;17.80;99.90;;;;;;2496239;23;20011;-73
2023/08/23 01:00:32;;;;;;;5.55;3.47;;;17.80;99.90;;;;;;2496621;23;20004;-73
2023/08/23 01:01:33;;;;;;;8.10;3.58;;;17.80;99.90;;;;;;2496652;23;20027;-73
2023/08/23 01:02:33;;;;;;;5.70;3.33;;;17.80;99.90;;;;;;2495805;23;20014;-73
2023/08/23 01:03:34;;;;;;;7.22;3.97;;;17.80;99.90;;;;;;2497086;23;20476;-73
2023/08/23 01:04:34;;;;;;;5.13;3.85;;;17.80;99.90;;;;;;2496033;23;20132;-73
2023/08/23 01:05:44;;;;;;;5.22;3.47;;;17.80;99.90;;;;;;2496143;23;20118;-73
2023/08/23 01:07:00;;;;;;;8.80;3.65;;;17.70;99.90;;;;;;2496428;23;20100;-73
2023/08/23 01:08:23;;;;;;;6.95;3.80;;;17.80;99.90;;;;;;2496521;23;20007;-73
2023/08/23 01:09:42;;;;;;;7.22;3.97;;;17.70;99.90;;;;;;2495592;23;20071;-73
2023/08/23 01:10:56;;;;;;;5.65;3.78;;;17.70;99.90;;;;;;2495958;23;20014;-73
2023/08/23 01:12:19;;;;;;;7.10;3.67;;;17.70;99.90;;;;;;2495905;23;20107;-73
2023/08/23 01:13:35;;;;;;;5.43;3.95;;;17.70;99.90;;;;;;2495755;23;20011;-73
2023/08/23 01:14:51;;;;;;;4.30;3.17;;;17.60;99.90;;;;;;2496449;23;20011;-73
2023/08/23 01:15:57;;;;;;;6.43;3.47;;;17.60;99.90;;;;;;2496701;23;20006;-73
2023/08/23 01:16:59;;;;;;;3.88;3.22;;;17.60;99.90;;;;;;2495778;23;20091;-73
2023/08/23 01:18:01;;;;;;;9.88;3.85;;;17.60;99.90;;;;;;2495254;23;20408;-73
2023/08/23 01:19:14;;;;;;;6.88;3.95;;;17.60;99.90;;;;;;2495804;23;20003;-73
2023/08/23 01:20:16;;;;;;;4.60;3.75;;;17.60;99.90;;;;;;2496153;23;20011;-73
2023/08/23 01:21:25;;;;;;;3.97;3.55;;;17.60;99.90;;;;;;2495924;23;20036;-73
2023/08/23 01:22:29;;;;;;;5.90;3.45;;;17.60;99.90;;;;;;2495497;23;20008;-73
2023/08/23 01:23:31;;;;;;;4.40;3.97;;;17.60;99.90;;;;;;2494799;23;20003;-73
2023/08/23 01:24:33;;;;;;;5.22;3.65;;;17.60;99.90;;;;;;2496637;23;19999;-73
2023/08/23 01:25:33;;;;;;;5.10;3.53;;;17.60;99.90;;;;;;2496069;23;20031;-73
2023/08/23 01:26:43;;;;;;;6.40;4.05;;;17.60;99.90;;;;;;2495630;23;20067;-73
2023/08/23 01:27:43;;;;;;;7.50;4.05;;;17.60;99.90;;;;;;2495978;23;20007;-73
2023/08/23 01:28:47;;;;;;;4.38;3.97;;;17.60;99.90;;;;;;2495726;23;19999;-73
2023/08/23 01:29:48;;;;;;;6.72;4.03;;;17.60;99.90;;;;;;2496865;23;20027;-73
2023/08/23 01:30:50;;;;;;;6.75;4.25;;;17.60;99.90;;;;;;2496139;23;20066;-73
2023/08/23 01:31:53;;;;;;;6.55;4.07;;;17.60;99.90;;;;;;2496405;23;20007;-73
2023/08/23 01:33:18;;;;;;;4.47;3.65;;;17.60;99.90;;;;;;2494949;23;20004;-73
2023/08/23 01:34:35;;;;;;;4.47;3.63;;;17.60;99.90;;;;;;2496352;23;20029;-73
2023/08/23 01:35:46;;;;;;;6.63;4.80;;;17.60;99.90;;;;;;2495924;23;20010;-73
2023/08/23 01:36:49;;;;;;;5.25;4.03;;;17.60;99.90;;;;;;2496285;23;20091;-73
2023/08/23 01:37:53;;;;;;;7.93;4.47;;;17.60;99.90;;;;;;2495770;23;20086;-73
2023/08/23 01:38:56;;;;;;;7.07;4.43;;;17.60;99.90;;;;;;2494874;23;20067;-73
2023/08/23 01:40:00;;;;;;;7.00;4.63;;;17.60;99.90;;;;;;2495493;23;20007;-73
2023/08/23 01:41:01;;;;;;;4.55;3.30;;;17.60;99.90;;;;;;2495731;23;20063;-73
2023/08/23 01:42:02;;;;;;;7.38;3.70;;;17.60;99.90;;;;;;2494937;23;20042;-73
2023/08/23 01:43:03;;;;;;;5.30;3.50;;;17.60;99.90;;;;;;2495158;23;19995;-73
2023/08/23 01:44:04;;;;;;;6.20;4.13;;;17.60;99.90;;;;;;2496939;23;20007;-73
2023/08/23 01:45:07;;;;;;;5.93;3.60;;;17.60;99.90;;;;;;2495566;23;20007;-73
2023/08/23 01:46:07;;;;;;;6.07;3.75;;;17.60;99.90;;;;;;2495777;23;20007;-73
2023/08/23 01:47:08;;;;;;;4.40;4.00;;;17.60;99.90;;;;;;2495565;23;19999;-73
2023/08/23 01:48:08;;;;;;;5.88;4.28;;;17.60;99.90;;;;;;2494922;23;20003;-73
2023/08/23 01:49:10;;;;;;;4.75;4.03;;;17.60;99.90;;;;;;2496558;23;20003;-73
2023/08/23 01:50:10;;;;;;;8.52;4.05;;;17.60;99.90;;;;;;2496251;23;19999;-73
2023/08/23 01:51:11;;;;;;;7.38;3.92;;;17.60;99.90;;;;;;2496387;23;20496;-73
2023/08/23 01:52:11;;;;;;;6.25;4.05;;;17.60;99.90;;;;;;2494615;23;20080;-73
2023/08/23 01:53:12;;;;;;;5.00;3.28;;;17.60;99.90;;;;;;2496336;23;20002;-73
2023/08/23 01:54:12;;;;;;;5.00;3.85;;;17.60;99.90;;;;;;2496327;23;20004;-73
2023/08/23 01:55:17;;;;;;;5.03;4.03;;;17.60;99.90;;;;;;2496334;23;20051;-73
2023/08/23 01:56:18;;;;;;;5.25;3.90;;;17.60;99.90;;;;;;2484050;23;20087;-73
2023/08/23 01:57:18;;;;;;;4.30;3.90;;;17.60;99.90;;;;;;2483743;23;20053;-73
2023/08/23 01:58:19;;;;;;;4.40;3.60;;;17.60;99.90;;;;;;2496080;23;20436;-73
2023/08/23 01:59:20;;;;;;;6.57;4.72;;;17.60;99.90;;;;;;2496135;23;20008;-73
2023/08/23 02:00:20;;;;;;;4.57;4.18;;;17.60;99.90;;;;;;2496438;23;20003;-73
2023/08/23 02:01:21;;;;;;;4.53;3.65;;;17.60;99.90;;;;;;2483008;23;20015;-73
2023/08/23 02:02:22;;;;;;;5.10;4.25;;;17.60;99.90;;;;;;2482818;23;20457;-73
2023/08/23 02:03:22;;;;;;;4.93;4.18;;;17.60;99.90;;;;;;2496292;23;20007;-73
2023/08/23 02:04:23;;;;;;;8.10;4.60;;;17.60;99.90;;;;;;2495495;23;20011;-73
2023/08/23 02:05:23;;;;;;;5.60;4.70;;;17.60;99.90;;;;;;2496722;23;20039;-73
2023/08/23 02:06:24;;;;;;;5.10;3.92;;;17.60;99.90;;;;;;2496576;23;20507;-73
2023/08/23 02:07:24;;;;;;;6.45;4.30;;;17.60;99.90;;;;;;2495894;23;20436;-73
2023/08/23 02:08:25;;;;;;;6.32;4.07;;;17.60;99.90;;;;;;2493874;23;20011;-73
2023/08/23 02:09:26;;;;;;;5.50;3.67;;;17.60;99.90;;;;;;2495596;23;20004;-73
2023/08/23 02:10:27;;;;;;;10.45;4.10;;;17.60;99.90;;;;;;2496501;23;20321;-73
2023/08/23 02:11:27;;;;;;;5.75;3.92;;;17.60;99.90;;;;;;2495650;23;20070;-73
2023/08/23 02:12:28;;;;;;;7.03;4.57;;;17.60;99.90;;;;;;2494823;23;20015;-73
2023/08/23 02:13:28;;;;;;;4.82;3.95;;;17.60;99.90;;;;;;2496268;23;20007;-73
2023/08/23 02:14:29;;;;;;;6.78;4.20;;;17.60;99.90;;;;;;2496249;23;20007;-73
2023/08/23 02:15:30;;;;;;;5.20;4.20;;;17.60;99.90;;;;;;2496220;23;20006;-73
2023/08/23 02:16:30;;;;;;;5.72;3.90;;;17.60;99.90;;;;;;2495133;23;20377;-73
2023/08/23 02:17:31;;;;;;;4.05;3.60;;;17.60;99.90;;;;;;2495101;23;20459;-73
2023/08/23 02:18:31;;;;;;;4.50;4.05;;;17.60;99.90;;;;;;2496503;23;20018;-73
2023/08/23 02:19:32;;;;;;;4.70;3.80;;;17.60;99.90;;;;;;2495808;23;20011;-73
2023/08/23 02:20:32;;;;;;;6.90;4.30;;;17.60;99.90;;;;;;2494636;23;20004;-73
2023/08/23 02:21:34;;;;;;;6.97;4.15;;;17.60;99.90;;;;;;2496055;23;20039;-73
2023/08/23 02:22:35;;;;;;;4.75;3.97;;;17.60;99.90;;;;;;2495689;23;20107;-73
2023/08/23 02:23:35;;;;;;;5.20;4.03;;;17.50;99.90;;;;;;2496189;23;20011;-73
2023/08/23 02:24:36;;;;;;;10.10;4.95;;;17.60;99.90;;;;;;2483512;23;20072;-73
2023/08/23 02:25:36;;;;;;;6.07;3.70;;;17.60;99.90;;;;;;2471071;24;20078;-73
2023/08/23 02:26:37;;;;;;;6.05;4.35;;;17.50;99.90;;;;;;2483598;23;20015;-73
2023/08/23 02:27:37;;;;;;;7.97;3.85;;;17.50;99.90;;;;;;2496171;23;20018;-74
2023/08/23 02:28:38;;;;;;;5.43;4.20;;;17.50;99.90;;;;;;2495996;23;20039;-74
2023/08/23 02:29:38;;;;;;;5.38;4.18;;;17.50;99.90;;;;;;2484169;23;20004;-74
2023/08/23 02:30:39;;;;;;;7.00;4.20;;;17.50;99.90;;;;;;2483883;23;20027;-74
2023/08/23 02:31:40;;;;;;;10.43;3.50;;;17.50;99.90;;;;;;2496175;23;20027;-74
2023/08/23 02:32:40;;;;;;;5.43;3.80;;;17.50;99.90;;;;;;2495510;23;20500;-74
2023/08/23 02:33:41;;;;;;;5.45;4.05;;;17.50;99.90;;;;;;2496128;23;20070;-74
2023/08/23 02:34:41;;;;;;;7.47;4.28;;;17.50;99.90;;;;;;2496127;23;19999;-74
2023/08/23 02:35:44;;;;;;;5.13;3.50;;;17.50;99.90;;;;;;2496777;23;20007;-74
2023/08/23 02:36:44;;;;;;;5.53;3.95;;;17.50;99.90;;;;;;2495234;23;20056;-74
2023/08/23 02:37:45;;;;;;;6.30;4.25;;;17.50;99.90;;;;;;2495124;23;20031;-74
2023/08/23 02:38:45;;;;;;;6.03;3.92;;;17.50;99.90;;;;;;2483413;23;20174;-74
2023/08/23 02:39:46;;;;;;;5.43;3.80;;;17.40;99.90;;;;;;2483413;23;20421;-74
2023/08/23 02:40:46;;;;;;;9.50;4.72;;;17.50;99.90;;;;;;2496189;23;20011;-74
2023/08/23 02:41:47;;;;;;;6.75;4.38;;;17.40;99.90;;;;;;2496012;23;20747;-74
2023/08/23 02:42:47;;;;;;;8.98;4.50;;;17.40;99.90;;;;;;2495438;23;20015;-74
2023/08/23 02:43:48;;;;;;;5.78;4.07;;;17.40;99.90;;;;;;2496237;23;20007;-74
2023/08/23 02:44:48;;;;;;;6.53;4.10;;;17.40;99.90;;;;;;2496292;23;20087;-74
2023/08/23 02:45:49;;;;;;;4.72;3.47;;;17.40;99.90;;;;;;2496584;23;20007;-74
2023/08/23 02:46:49;;;;;;;5.03;3.45;;;17.40;99.90;;;;;;2495791;23;20038;-74
2023/08/23 02:47:50;;;;;;;5.38;3.83;;;17.40;99.90;;;;;;2483690;23;20417;-74
2023/08/23 02:48:51;;;;;;;5.03;4.00;;;17.40;99.90;;;;;;2483657;23;20004;-74
2023/08/23 02:49:51;;;;;;;8.98;4.97;;;17.40;99.90;;;;;;2494785;23;20011;-74
2023/08/23 02:50:52;;;;;;;6.82;4.03;;;17.40;99.90;;;;;;2495707;23;20010;-74
2023/08/23 02:51:53;;;;;;;7.03;4.65;;;17.40;99.90;;;;;;2495527;23;20007;-74
2023/08/23 02:52:53;;;;;;;12.02;4.32;;;17.40;99.90;;;;;;2495333;23;20046;-74
2023/08/23 02:53:54;;;;;;;6.18;3.80;;;17.40;99.90;;;;;;2496160;23;20034;-74
2023/08/23 02:54:54;;;;;;;4.63;4.13;;;17.40;99.90;;;;;;2494960;23;20500;-74
2023/08/23 02:55:55;;;;;;;5.43;4.65;;;17.40;99.90;;;;;;2496273;23;20353;-74
2023/08/23 02:56:55;;;;;;;7.60;4.15;;;17.30;99.90;;;;;;2495539;23;19999;-74
2023/08/23 02:57:56;;;;;;;8.27;4.10;;;17.30;99.90;;;;;;2495771;23;20074;-74
2023/08/23 02:58:56;;;;;;;7.20;3.90;;;17.30;99.90;;;;;;2496361;23;20014;-74
2023/08/23 02:59:57;;;;;;;5.07;4.57;;;17.30;99.90;;;;;;2496336;23;20082;-74
2023/08/23 03:00:58;;;;;;;5.22;4.13;;;17.30;99.90;;;;;;2496132;23;20007;-73
2023/08/23 03:01:58;;;;;;;5.05;4.07;;;17.30;99.90;;;;;;2495685;23;20424;-74
2023/08/23 03:02:59;;;;;;;4.78;4.28;;;17.30;99.90;;;;;;2482435;23;20004;-74
2023/08/23 03:03:59;;;;;;;5.38;4.15;;;17.30;99.90;;;;;;2484007;23;20061;-74
2023/08/23 03:05:00;;;;;;;7.60;4.40;;;17.30;99.90;;;;;;2495909;23;20428;-74
2023/08/23 03:06:00;;;;;;;7.97;4.38;;;17.30;99.90;;;;;;2495386;23;20063;-74
2023/08/23 03:07:01;;;;;;;6.68;5.20;;;17.30;99.90;;;;;;2495770;23;20055;-74
2023/08/23 03:08:01;;;;;;;8.65;4.90;;;17.30;99.90;;;;;;2495950;23;20004;-74
2023/08/23 03:09:02;;;;;;;5.88;4.57;;;17.30;99.90;;;;;;2483011;23;20087;-74
2023/08/23 03:10:02;;;;;;;8.10;4.53;;;17.20;99.90;;;;;;2483209;23;20015;-73
2023/08/23 03:11:04;;;;;;;5.57;4.13;;;17.20;99.90;;;;;;2495599;23;19999;-74
2023/08/23 03:12:05;;;;;;;4.63;3.90;;;17.20;99.90;;;;;;2495740;23;20135;-74
2023/08/23 03:13:06;;;;;;;8.27;5.18;;;17.20;99.90;;;;;;2495162;23;20051;-74
2023/08/23 03:14:06;;;;;;;8.27;4.95;;;17.20;99.90;;;;;;2495466;23;20510;-74
2023/08/23 03:15:07;;;;;;;6.40;5.00;;;17.20;99.90;;;;;;2496068;23;20093;-74
2023/08/23 03:16:08;;;;;;;6.93;4.65;;;17.20;99.90;;;;;;2495971;23;20038;-74
2023/08/23 03:17:08;;;;;;;6.65;4.70;;;17.20;99.90;;;;;;2496236;23;20010;-74
2023/08/23 03:18:09;;;;;;;8.38;4.80;;;17.20;99.90;;;;;;2496401;23;20003;-74
2023/08/23 03:19:10;;;;;;;6.72;4.55;;;17.20;99.90;;;;;;2495724;23;20320;-74
2023/08/23 03:20:10;;;;;;;6.22;4.82;;;17.20;99.90;;;;;;2496641;23;20027;-74
2023/08/23 03:21:11;;;;;;;7.13;4.50;;;17.20;99.90;;;;;;2495653;23;20011;-74
2023/08/23 03:22:11;;;;;;;9.65;4.38;;;17.20;99.90;;;;;;2482853;23;20000;-74
2023/08/23 03:23:12;;;;;;;7.57;4.65;;;17.20;99.90;;;;;;2482924;23;20006;-74
2023/08/23 03:24:12;;;;;;;6.93;4.90;;;17.20;99.90;;;;;;2496539;23;20070;-74
2023/08/23 03:25:13;;;;;;;10.50;5.50;;;17.20;99.90;;;;;;2495116;23;20011;-74
2023/08/23 03:26:13;;;;;;;8.05;5.43;;;17.20;99.90;;;;;;2496343;23;20436;-74
2023/08/23 03:27:14;;;;;;;6.00;4.65;;;17.10;99.90;;;;;;2495073;23;20003;-74
2023/08/23 03:28:15;;;;;;;6.68;4.28;;;17.10;99.90;;;;;;2495475;23;19999;-74
2023/08/23 03:29:15;;;;;;;7.22;5.28;;;17.10;99.90;;;;;;2496228;23;20492;-74
2023/08/23 03:30:16;;;;;;;8.55;5.22;;;17.10;99.90;;;;;;2495595;23;20015;-74
2023/08/23 03:31:16;;;;;;;9.27;5.57;;;17.10;99.90;;;;;;2495772;23;20665;-74
2023/08/23 03:32:17;;;;;;;6.15;5.18;;;17.10;99.90;;;;;;2495648;23;20078;-74
2023/08/23 03:33:17;;;;;;;7.03;5.35;;;17.10;99.90;;;;;;2495489;23;20011;-74
2023/08/23 03:34:18;;;;;;;5.32;4.82;;;17.10;99.90;;;;;;2496068;23;20035;-74
2023/08/23 03:35:19;;;;;;;6.00;3.88;;;17.10;99.90;;;;;;2495692;23;20004;-74
2023/08/23 03:36:20;;;;;;;7.82;5.03;;;17.10;99.90;;;;;;2495998;23;20008;-74
2023/08/23 03:37:20;;;;;;;10.63;5.35;;;17.10;99.90;;;;;;2496214;23;20007;-74
2023/08/23 03:38:21;;;;;;;7.10;5.22;;;17.10;99.90;;;;;;2495488;23;20044;-74
2023/08/23 03:39:22;;;;;;;7.13;5.22;;;17.10;99.90;;;;;;2495811;23;20329;-74
2023/08/23 03:40:22;;;;;;;7.55;5.63;;;17.10;99.90;;;;;;2496124;23;20082;-74
2023/08/23 03:41:23;;;;;;;5.03;4.53;;;17.00;99.90;;;;;;2496138;23;20432;-74
2023/08/23 03:42:23;;;;;;;6.80;4.45;;;17.00;99.90;;;;;;2494868;23;20014;-74
2023/08/23 03:43:24;;;;;;;5.78;5.05;;;17.00;99.90;;;;;;2494971;23;20003;-74
2023/08/23 03:44:25;;;;;;;8.80;5.70;;;17.00;99.90;;;;;;2495655;23;20371;-74
2023/08/23 03:45:25;;;;;;;6.88;5.40;;;17.00;99.90;;;;;;2496319;23;20662;-74
2023/08/23 03:46:26;;;;;;;6.15;5.15;;;17.00;99.90;;;;;;2496004;23;20012;-74
2023/08/23 03:47:26;;;;;;;7.53;5.82;;;17.00;99.90;;;;;;2496452;23;20011;-74
2023/08/23 03:48:27;;;;;;;9.73;5.93;;;17.00;99.90;;;;;;2497093;23;20011;-74
2023/08/23 03:49:28;;;;;;;7.03;4.55;;;17.00;99.90;;;;;;2496520;23;20055;-74
2023/08/23 03:50:28;;;;;;;6.60;5.13;;;17.00;99.90;;;;;;2496893;23;20372;-74
2023/08/23 03:51:29;;;;;;;8.15;5.47;;;17.00;99.90;;;;;;2496625;23;20048;-74
2023/08/23 03:52:29;;;;;;;10.80;5.60;;;17.00;99.90;;;;;;2495737;23;20007;-74
2023/08/23 03:53:30;;;;;;;8.32;5.50;;;17.00;99.90;;;;;;2496105;23;20091;-74
2023/08/23 03:54:31;;;;;;;7.03;5.22;;;17.00;99.90;;;;;;2495550;23;20003;-74
2023/08/23 03:55:31;;;;;;;5.82;4.88;;;16.90;99.90;;;;;;2496776;23;20015;-74
2023/08/23 03:56:32;;;;;;;6.80;4.75;;;16.90;99.90;;;;;;2485858;23;20010;-74
2023/08/23 03:57:32;;;;;;;6.97;4.75;;;16.90;99.90;;;;;;2483872;23;20000;-74
2023/08/23 03:58:34;;;;;;;9.95;5.32;;;16.90;99.90;;;;;;2496926;23;20468;-74
2023/08/23 03:59:34;;;;;;;7.15;6.45;;;16.90;99.90;;;;;;2495824;23;20014;-74
2023/08/23 04:00:36;;;;;;;8.10;5.35;;;16.90;99.90;;;;;;2495652;23;20599;-74
2023/08/23 04:01:36;;;;;;;8.10;5.82;;;16.90;99.90;;;;;;2496935;23;20022;-74
2023/08/23 04:02:37;;;;;;;6.30;5.00;;;16.90;99.90;;;;;;2496074;23;20007;-74
2023/08/23 04:03:37;;;;;;;7.32;5.75;;;16.90;99.90;;;;;;2496207;23;20627;-74
2023/08/23 04:04:38;;;;;;;6.45;4.85;;;16.90;99.90;;;;;;2497218;23;20521;-74
2023/08/23 04:05:39;;;;;;;11.57;5.20;;;16.90;99.90;;;;;;2483926;23;20012;-74
2023/08/23 04:06:40;;;;;;;8.73;5.75;;;16.90;99.90;;;;;;2484413;23;20082;-74
2023/08/23 04:07:41;;;;;;;7.25;4.97;;;16.90;99.90;;;;;;2483325;23;20011;-74
2023/08/23 04:08:41;;;;;;;6.35;4.65;;;16.90;99.90;;;;;;2483782;23;20781;-74
2023/08/23 04:09:42;;;;;;;10.02;4.93;;;16.80;99.90;;;;;;2497192;23;20332;-74
2023/08/23 04:10:47;;;;;;;6.38;4.95;;;16.80;99.90;;;;;;2483434;23;20008;-74
2023/08/23 04:11:47;;;;;;;8.63;5.47;;;16.80;99.90;;;;;;2484954;23;20006;-74
2023/08/23 04:12:48;;;;;;;6.90;4.93;;;16.80;99.90;;;;;;2496144;23;20441;-74
2023/08/23 04:13:48;;;;;;;8.10;5.00;;;16.80;99.90;;;;;;2496442;23;20051;-74
2023/08/23 04:14:49;;;;;;;9.68;5.85;;;16.80;99.90;;;;;;2496949;23;20018;-74
2023/08/23 04:15:49;;;;;;;7.30;5.35;;;16.80;99.90;;;;;;2495955;23;20034;-74
2023/08/23 04:16:50;;;;;;;7.57;5.85;;;16.80;99.90;;;;;;2484101;23;20015;-74
2023/08/23 04:17:50;;;;;;;6.60;5.28;;;16.80;99.90;;;;;;2484522;23;20000;-74
2023/08/23 04:18:51;;;;;;;6.13;5.20;;;16.80;99.90;;;;;;2496410;23;20038;-74
2023/08/23 04:19:51;;;;;;;7.75;5.50;;;16.80;99.90;;;;;;2496370;23;20011;-74
2023/08/23 04:21:01;;;;;;;5.95;4.60;;;16.80;99.90;;;;;;2496413;23;20091;-74
2023/08/23 04:22:02;;;;;;;6.85;5.05;;;16.80;99.90;;;;;;2494890;23;20508;-74
2023/08/23 04:23:03;;;;;;;8.52;5.47;;;16.80;99.90;;;;;;2496875;23;20003;-74
2023/08/23 04:24:04;;;;;;;7.60;5.70;;;16.80;99.90;;;;;;2496581;23;20411;-74
2023/08/23 04:25:05;;;;;;;6.95;5.30;;;16.80;99.90;;;;;;2496666;23;20011;-74
2023/08/23 04:26:05;;;;;;;6.95;5.40;;;16.70;99.90;;;;;;2496099;23;20007;-74
2023/08/23 04:27:06;;;;;;;8.10;5.30;;;16.80;99.90;;;;;;2496762;23;20003;-74
2023/08/23 04:28:06;;;;;;;6.40;5.45;;;16.80;99.90;;;;;;2496672;23;20428;-74
2023/08/23 04:29:07;;;;;;;5.72;4.53;;;16.80;99.90;;;;;;2496834;23;20059;-74
2023/08/23 04:30:08;;;;;;;6.13;5.30;;;16.80;99.90;;;;;;2496558;23;19995;-74
2023/08/23 04:31:08;;;;;;;5.95;4.60;;;16.80;99.90;;;;;;2497171;23;20007;-74
2023/08/23 04:32:12;;;;;;;6.95;5.22;;;16.80;99.90;;;;;;2495496;23;20000;-74
2023/08/23 04:33:13;;;;;;;8.25;5.78;;;16.80;99.90;;;;;;2496055;23;20313;-74
2023/08/23 04:34:14;;;;;;;7.53;5.20;;;16.80;99.90;;;;;;2496965;23;20011;-74
2023/08/23 04:35:14;;;;;;;6.60;5.57;;;16.80;99.90;;;;;;2496526;23;20035;-73
2023/08/23 04:36:15;;;;;;;7.40;5.80;;;16.80;99.90;;;;;;2494787;23;20618;-74
2023/08/23 04:37:16;;;;;;;6.40;4.88;;;16.80;99.90;;;;;;2496426;23;20734;-74
2023/08/23 04:38:17;;;;;;;11.30;4.90;;;16.80;99.90;;;;;;2496246;23;20059;-74
2023/08/23 04:39:17;;;;;;;5.88;4.93;;;16.80;99.90;;;;;;2496731;23;20499;-74
2023/08/23 04:40:18;;;;;;;5.50;4.40;;;16.80;99.90;;;;;;2496438;23;20014;-74
2023/08/23 04:41:18;;;;;;;7.22;4.95;;;16.80;99.90;;;;;;2496079;23;20090;-74
2023/08/23 04:42:19;;;;;;;5.97;4.90;;;16.80;99.90;;;;;;2496140;23;20034;-74
2023/08/23 04:43:19;;;;;;;7.00;4.80;;;16.90;99.90;;;;;;2496296;23;20023;-74
2023/08/23 04:44:20;;;;;;;8.27;4.97;;;16.80;99.90;;;;;;2496505;23;20031;-74
2023/08/23 04:45:20;;;;;;;7.47;4.85;;;16.90;99.90;;;;;;2496353;23;20007;-74
2023/08/23 04:46:21;;;;;;;10.48;5.15;;;16.90;99.90;;;;;;2496511;23;20421;-74
2023/08/23 04:47:21;;;;;;;6.22;4.95;;;16.80;99.90;;;;;;2484168;23;20067;-74
2023/08/23 04:48:23;;;;;;;5.93;5.18;;;16.90;99.90;;;;;;2483967;23;20059;-74
2023/08/23 04:49:23;;;;;;;6.25;4.78;;;16.80;99.90;;;;;;2484010;23;20098;-74
2023/08/23 04:50:24;;;;;;;10.73;5.00;;;16.90;99.90;;;;;;2484185;23;20004;-74
2023/08/23 04:51:24;;;;;;;8.00;5.10;;;16.80;99.90;;;;;;2496262;23;20007;-74
2023/08/23 04:52:27;;;;;;;7.03;5.13;;;16.90;99.90;;;;;;2495763;23;20073;-74
2023/08/23 04:53:27;;;;;;;7.15;4.53;;;16.90;99.90;;;;;;2497119;23;20034;-74
2023/08/23 04:54:28;;;;;;;5.00;4.50;;;16.90;99.90;;;;;;2496314;23;20003;-74
2023/08/23 04:55:28;;;;;;;7.47;4.80;;;16.90;99.90;;;;;;2496776;23;20000;-74
2023/08/23 04:56:29;;;;;;;6.82;4.57;;;16.90;99.90;;;;;;2495875;23;20403;-74
2023/08/23 04:57:29;;;;;;;7.75;5.32;;;16.80;99.90;;;;;;2496166;23;20014;-74
2023/08/23 04:58:30;;;;;;;6.45;5.75;;;16.90;99.90;;;;;;2496601;23;20003;-74
2023/08/23 04:59:30;;;;;;;6.15;4.97;;;16.90;99.90;;;;;;2495624;23;20007;-74
2023/08/23 05:00:31;;;;;;;7.00;5.28;;;16.90;99.90;;;;;;2496176;23;20014;-74
2023/08/23 05:01:31;;;;;;;7.55;5.15;;;16.90;99.90;;;;;;2484032;23;20091;-74
2023/08/23 05:02:32;;;;;;;9.77;5.30;;;16.90;99.90;;;;;;2483321;23;20079;-74
2023/08/23 05:03:34;;;;;;;5.90;5.28;;;16.90;99.90;;;;;;2496968;23;20014;-74
2023/08/23 05:04:35;;;;;;;8.60;4.90;;;16.90;99.90;;;;;;2496624;23;20038;-74
2023/08/23 05:05:36;;;;;;;5.70;5.20;;;16.90;99.90;;;;;;2496133;23;20042;-74
2023/08/23 05:06:36;;;;;;;8.45;5.07;;;16.90;99.90;;;;;;2496314;23;20695;-74
2023/08/23 05:07:37;;;;;;;7.40;5.00;;;16.90;99.90;;;;;;2496403;23;20018;-74
2023/08/23 05:08:37;;;;;;;10.40;5.10;;;16.90;99.90;;;;;;2496125;23;20015;-74
2023/08/23 05:09:38;;;;;;;6.00;4.43;;;16.90;99.90;;;;;;2497103;23;20010;-74
2023/08/23 05:10:38;;;;;;;7.50;5.25;;;16.90;99.90;;;;;;2496305;23;20007;-74
2023/08/23 05:11:39;;;;;;;7.18;5.38;;;16.90;99.90;;;;;;2496123;23;20000;-74
2023/08/23 05:12:39;;;;;;;8.43;4.72;;;16.90;99.90;;;;;;2495049;23;20011;-74
2023/08/23 05:13:40;;;;;;;7.85;5.38;;;16.90;99.90;;;;;;2495220;23;20059;-74
2023/08/23 05:14:40;;;;;;;8.20;5.60;;;16.90;99.90;;;;;;2483310;23;20008;-74
2023/08/23 05:15:41;;;;;;;8.32;5.55;;;17.00;99.90;;;;;;2483606;23;20010;-74
2023/08/23 05:16:41;;;;;;;7.32;4.93;;;17.00;99.90;;;;;;2495837;23;20003;-74
2023/08/23 05:17:42;;;;;;;10.80;5.63;;;17.00;99.90;;;;;;2496182;23;20011;-74
2023/08/23 05:18:43;;;;;;;10.70;5.50;;;17.00;99.90;;;;;;2495063;23;20059;-74
2023/08/23 05:19:44;;;;;;;6.97;5.60;;;17.00;99.90;;;;;;2495731;23;20035;-74